Time;durP1;ratioP1;P1;durP2;ratioP2;P2;SDS_P1;SDS_P2;PMS_P1;PMS_P2;Temp;Humidity;BMP_temperature;BMP_pressure;BME280_temperature;BME280_humidity;BME280_pressure;Samples;Min_cycle;Max_cycle;Signal;HPM_P1;HPM_P2
2022/06/15 00:00:45;;;;;;;9.48;3.90;;;12.60;99.90;;;;;;5109106;27;20077;-67
2022/06/15 00:03:13;;;;;;;5.78;4.03;;;12.70;99.90;;;;;;5090981;28;20036;-67
2022/06/15 00:05:39;;;;;;;8.38;4.55;;;12.70;99.90;;;;;;5079632;28;20072;-67
2022/06/15 00:08:05;;;;;;;10.35;4.40;;;12.70;99.90;;;;;;5079470;28;21125;-67
2022/06/15 00:10:31;;;;;;;6.30;4.13;;;12.70;99.90;;;;;;5095727;28;20043;-66
2022/06/15 00:12:57;;;;;;;8.07;4.00;;;12.60;99.90;;;;;;5090536;28;20040;-67
2022/06/15 00:15:22;;;;;;;5.32;4.28;;;12.60;99.90;;;;;;5081633;28;20482;-67
2022/06/15 00:17:48;;;;;;;9.38;4.68;;;12.60;99.90;;;;;;5107626;27;20394;-67
2022/06/15 00:20:14;;;;;;;11.48;5.03;;;12.60;99.90;;;;;;5091792;28;20028;-67
2022/06/15 00:22:40;;;;;;;8.48;3.95;;;12.70;99.90;;;;;;5095832;28;20046;-66
2022/06/15 00:25:07;;;;;;;9.02;4.97;;;12.60;99.90;;;;;;5080330;28;20039;-67
2022/06/15 00:27:32;;;;;;;8.52;4.53;;;12.60;99.90;;;;;;5068837;28;20056;-67
2022/06/15 00:29:58;;;;;;;7.68;4.00;;;12.60;99.90;;;;;;5078034;28;20043;-67
2022/06/15 00:32:25;;;;;;;9.07;4.05;;;12.60;99.90;;;;;;5073483;28;20056;-67
2022/06/15 00:34:50;;;;;;;5.88;4.28;;;12.60;99.90;;;;;;5079161;28;20123;-67
2022/06/15 00:37:16;;;;;;;7.28;5.15;;;12.60;99.90;;;;;;5096732;28;20497;-66
2022/06/15 00:39:41;;;;;;;7.20;4.43;;;12.60;99.90;;;;;;5106087;27;20093;-67
2022/06/15 00:42:11;;;;;;;7.90;4.82;;;12.50;99.90;;;;;;5112583;27;20042;-67
2022/06/15 00:44:38;;;;;;;6.22;4.47;;;12.50;99.90;;;;;;5098896;28;20596;-67
2022/06/15 00:47:08;;;;;;;10.98;4.72;;;12.50;99.90;;;;;;5079385;28;20550;-67
2022/06/15 00:49:55;;;;;;;6.82;4.10;;;12.50;99.90;;;;;;5078974;28;20482;-67
2022/06/15 00:52:33;;;;;;;9.20;4.70;;;12.50;99.90;;;;;;5097533;28;20524;-67
2022/06/15 00:55:01;;;;;;;5.95;4.53;;;12.50;99.90;;;;;;5104770;27;20043;-67
2022/06/15 00:57:28;;;;;;;7.43;5.32;;;12.50;99.90;;;;;;5092791;28;20044;-67
2022/06/15 00:59:59;;;;;;;10.30;5.10;;;12.50;99.90;;;;;;5075234;28;20438;-67
2022/06/15 01:02:27;;;;;;;9.60;4.55;;;12.40;99.90;;;;;;5096863;28;20116;-66
2022/06/15 01:04:58;;;;;;;6.97;4.78;;;12.40;99.90;;;;;;5078107;28;20504;-67
2022/06/15 01:07:59;;;;;;;7.57;5.15;;;12.40;99.90;;;;;;5107232;27;20052;-67
2022/06/15 01:10:37;;;;;;;8.88;5.03;;;12.40;99.90;;;;;;5054524;28;20051;-67
2022/06/15 01:13:39;;;;;;;8.15;4.70;;;12.30;99.90;;;;;;5077039;28;20390;-66
2022/06/15 01:16:23;;;;;;;6.97;4.93;;;12.30;99.90;;;;;;5110917;27;20076;-67
2022/06/15 01:19:01;;;;;;;7.60;4.80;;;12.30;99.90;;;;;;5094848;28;20036;-67
2022/06/15 01:22:21;;;;;;;9.18;5.30;;;12.30;99.90;;;;;;5073115;28;20050;-67
2022/06/15 01:25:05;;;;;;;8.57;4.90;;;12.20;99.90;;;;;;5072497;28;20051;-67
2022/06/15 01:27:47;;;;;;;9.38;4.32;;;12.20;99.90;;;;;;5104281;27;20040;-66
2022/06/15 01:30:30;;;;;;;8.38;5.13;;;12.20;99.90;;;;;;5092187;28;20035;-66
2022/06/15 01:33:20;;;;;;;9.65;5.07;;;12.20;99.90;;;;;;5089114;28;20039;-66
2022/06/15 01:36:02;;;;;;;7.07;5.40;;;12.20;99.90;;;;;;5071897;28;20040;-66
2022/06/15 01:38:59;;;;;;;7.10;5.18;;;12.10;99.90;;;;;;5093742;28;20113;-67
2022/06/15 01:41:48;;;;;;;8.52;4.28;;;12.20;99.90;;;;;;5074229;28;20089;-67
2022/06/15 01:44:31;;;;;;;5.53;4.25;;;12.10;99.90;;;;;;5093111;28;20043;-67
2022/06/15 01:47:01;;;;;;;8.95;5.28;;;12.10;99.90;;;;;;5104380;27;20086;-67
2022/06/15 01:49:33;;;;;;;6.47;4.28;;;12.10;99.90;;;;;;5075718;28;20039;-67
2022/06/15 01:52:00;;;;;;;7.15;4.38;;;12.10;99.90;;;;;;5105765;27;20138;-67
2022/06/15 01:54:32;;;;;;;9.38;4.95;;;12.10;99.90;;;;;;5074122;28;20047;-67
2022/06/15 01:57:00;;;;;;;9.38;4.35;;;12.10;99.90;;;;;;5072998;28;20059;-67
2022/06/15 01:59:47;;;;;;;7.65;4.63;;;12.00;99.90;;;;;;5090546;28;20044;-67
2022/06/15 02:02:19;;;;;;;5.47;4.43;;;12.00;99.90;;;;;;5091045;28;20028;-67
2022/06/15 02:04:58;;;;;;;8.60;4.60;;;11.90;99.90;;;;;;5078739;28;20044;-67
2022/06/15 02:08:06;;;;;;;7.05;4.80;;;11.90;99.90;;;;;;5074588;28;20032;-67
2022/06/15 02:11:02;;;;;;;8.00;4.30;;;11.90;99.90;;;;;;5095895;28;20028;-67
2022/06/15 02:13:52;;;;;;;11.57;4.35;;;11.80;99.90;;;;;;5087374;28;20410;-67
2022/06/15 02:16:35;;;;;;;8.05;4.47;;;11.80;99.90;;;;;;5072862;28;20039;-67
2022/06/15 02:19:04;;;;;;;8.65;4.82;;;11.80;99.90;;;;;;5071743;28;20040;-67
2022/06/15 02:21:31;;;;;;;7.70;4.50;;;11.80;99.90;;;;;;5057203;28;20055;-67
2022/06/15 02:24:00;;;;;;;10.30;5.00;;;11.80;99.90;;;;;;5071101;28;20051;-67
2022/06/15 02:26:30;;;;;;;11.15;4.93;;;11.70;99.90;;;;;;5092745;28;20071;-67
2022/06/15 02:29:00;;;;;;;10.18;4.68;;;11.70;99.90;;;;;;5072203;28;20052;-67
2022/06/15 02:31:27;;;;;;;5.63;3.83;;;11.80;99.90;;;;;;5091055;28;20601;-67
2022/06/15 02:33:54;;;;;;;5.35;4.35;;;11.80;99.90;;;;;;5066763;28;20040;-67
2022/06/15 02:36:21;;;;;;;6.63;4.72;;;11.70;99.90;;;;;;5084826;28;20043;-67
2022/06/15 02:38:49;;;;;;;9.00;3.83;;;11.80;99.90;;;;;;5081853;28;20543;-67
2022/06/15 02:41:19;;;;;;;6.10;5.13;;;11.80;99.90;;;;;;5076007;28;20087;-67
2022/06/15 02:43:47;;;;;;;7.35;4.70;;;11.70;99.90;;;;;;5088214;28;20043;-67
2022/06/15 02:46:14;;;;;;;6.93;4.68;;;11.70;99.90;;;;;;5102666;27;20055;-67
2022/06/15 02:48:40;;;;;;;7.32;4.65;;;11.70;99.90;;;;;;5104258;27;20070;-67
2022/06/15 02:51:08;;;;;;;8.43;4.85;;;11.70;99.90;;;;;;5066681;28;20060;-67
2022/06/15 02:53:35;;;;;;;7.70;4.80;;;11.70;99.90;;;;;;5106692;27;20051;-67
2022/06/15 02:56:03;;;;;;;7.43;5.38;;;11.70;99.90;;;;;;5091078;28;20032;-67
2022/06/15 02:58:33;;;;;;;8.68;4.28;;;11.60;99.90;;;;;;5071408;28;20053;-67
2022/06/15 03:00:59;;;;;;;7.82;4.70;;;11.60;99.90;;;;;;5090147;28;20517;-67
2022/06/15 03:03:27;;;;;;;7.22;4.97;;;11.70;99.90;;;;;;5072632;28;20044;-67
2022/06/15 03:05:53;;;;;;;6.57;5.45;;;11.60;99.90;;;;;;5109498;27;20043;-67
2022/06/15 03:08:20;;;;;;;9.07;4.93;;;11.60;99.90;;;;;;5090202;28;20044;-67
2022/06/15 03:10:48;;;;;;;7.97;5.15;;;11.60;99.90;;;;;;5068186;28;20036;-67
2022/06/15 03:13:14;;;;;;;7.40;5.07;;;11.60;99.90;;;;;;5073914;28;20616;-67
2022/06/15 03:15:39;;;;;;;7.90;4.70;;;11.60;99.90;;;;;;5070930;28;20083;-67
2022/06/15 03:18:05;;;;;;;12.27;5.55;;;11.60;99.90;;;;;;5071897;28;20390;-67
2022/06/15 03:20:31;;;;;;;7.70;5.30;;;11.60;99.90;;;;;;5073126;28;20034;-67
2022/06/15 03:22:56;;;;;;;9.32;4.90;;;11.60;99.90;;;;;;5075522;28;20412;-67
2022/06/15 03:25:23;;;;;;;10.32;6.03;;;11.60;99.90;;;;;;5093475;28;20043;-67
2022/06/15 03:27:49;;;;;;;8.27;4.78;;;11.60;99.90;;;;;;5070505;28;20044;-67
2022/06/15 03:30:15;;;;;;;9.57;4.72;;;11.70;99.90;;;;;;5075351;28;20043;-67
2022/06/15 03:32:41;;;;;;;6.18;5.05;;;11.60;99.90;;;;;;5087556;28;20385;-67
2022/06/15 03:35:07;;;;;;;6.68;4.63;;;11.60;99.90;;;;;;5067363;28;20040;-67
2022/06/15 03:37:33;;;;;;;6.53;4.78;;;11.60;99.90;;;;;;5074668;28;20044;-67
2022/06/15 03:39:58;;;;;;;8.00;5.68;;;11.70;99.90;;;;;;5101266;28;20504;-67
2022/06/15 03:42:25;;;;;;;10.48;5.55;;;11.60;99.90;;;;;;5087678;28;20043;-67
2022/06/15 03:44:53;;;;;;;9.32;5.53;;;11.60;99.90;;;;;;5070809;28;20483;-67
2022/06/15 03:47:20;;;;;;;7.30;5.20;;;11.60;99.90;;;;;;5073037;28;20040;-67
2022/06/15 03:49:54;;;;;;;6.25;4.88;;;11.70;99.90;;;;;;5090881;28;20511;-67
2022/06/15 03:52:23;;;;;;;9.32;5.20;;;11.70;99.90;;;;;;5070157;28;20496;-67
2022/06/15 03:54:49;;;;;;;7.88;5.60;;;11.60;99.90;;;;;;5072896;28;20055;-67
2022/06/15 03:57:17;;;;;;;8.70;5.40;;;11.70;99.90;;;;;;5108572;28;20753;-67
2022/06/15 03:59:44;;;;;;;9.98;5.30;;;11.80;99.90;;;;;;5089185;28;20039;-67
2022/06/15 04:02:09;;;;;;;6.57;4.18;;;11.80;99.90;;;;;;5051058;28;20032;-67
2022/06/15 04:04:35;;;;;;;7.75;4.93;;;11.90;99.90;;;;;;5074881;28;20040;-67
2022/06/15 04:07:01;;;;;;;6.38;4.68;;;12.00;99.90;;;;;;5090838;28;20075;-67
2022/06/15 04:09:27;;;;;;;6.15;4.68;;;12.60;99.90;;;;;;5076180;28;20060;-67
2022/06/15 04:12:01;;;;;;;7.40;4.03;;;13.00;99.90;;;;;;5099445;28;20036;-67
2022/06/15 04:14:31;;;;;;;6.53;3.60;;;12.90;99.90;;;;;;5089850;28;20063;-67
2022/06/15 04:16:57;;;;;;;6.03;4.30;;;12.90;99.90;;;;;;5084900;28;21908;-67
2022/06/15 04:19:26;;;;;;;7.72;4.32;;;13.00;99.90;;;;;;5092551;28;20035;-67
2022/06/15 04:21:53;;;;;;;5.55;4.22;;;13.00;99.90;;;;;;5087243;28;20236;-67
2022/06/15 04:24:20;;;;;;;5.85;4.00;;;13.20;99.90;;;;;;5093060;28;20043;-67
2022/06/15 04:26:48;;;;;;;7.88;4.47;;;13.30;99.90;;;;;;5091067;28;20032;-67
2022/06/15 04:29:14;;;;;;;5.55;3.88;;;13.60;99.90;;;;;;5096324;28;20389;-67
2022/06/15 04:31:40;;;;;;;5.82;3.58;;;14.00;99.90;;;;;;5091480;28;20047;-67
2022/06/15 04:34:09;;;;;;;5.00;3.45;;;14.80;99.90;;;;;;5103939;27;20048;-67
2022/06/15 04:36:35;;;;;;;5.95;3.10;;;16.00;99.90;;;;;;5075641;28;20036;-68
2022/06/15 04:39:02;;;;;;;7.88;3.22;;;17.10;99.90;;;;;;5072426;28;20036;-68
2022/06/15 04:41:27;;;;;;;6.47;2.85;;;18.10;99.90;;;;;;5092421;28;20031;-68
2022/06/15 04:43:53;;;;;;;6.50;3.92;;;18.90;99.90;;;;;;5077106;28;20490;-68
2022/06/15 04:46:19;;;;;;;3.92;2.70;;;19.20;99.90;;;;;;5069109;28;20090;-67
2022/06/15 04:48:44;;;;;;;5.75;3.70;;;18.70;99.90;;;;;;5075658;28;20044;-68
2022/06/15 04:51:21;;;;;;;7.15;3.53;;;18.00;99.90;;;;;;5076275;28;20043;-67
2022/06/15 04:53:48;;;;;;;4.75;3.08;;;17.20;99.90;;;;;;5089312;28;20131;-67
2022/06/15 04:56:15;;;;;;;13.00;4.43;;;16.50;99.90;;;;;;5093187;28;20040;-67
2022/06/15 04:58:40;;;;;;;8.90;4.07;;;16.00;99.90;;;;;;5079388;28;20044;-67
2022/06/15 05:01:07;;;;;;;5.85;3.38;;;15.60;99.90;;;;;;5094887;28;20038;-67
2022/06/15 05:03:33;;;;;;;5.10;3.22;;;15.30;99.90;;;;;;5096159;28;20039;-67
2022/06/15 05:05:59;;;;;;;7.40;4.03;;;15.10;99.90;;;;;;5076525;28;20494;-67
2022/06/15 05:08:24;;;;;;;5.95;3.75;;;14.90;99.90;;;;;;5095920;28;20035;-68
2022/06/15 05:10:50;;;;;;;5.90;3.92;;;14.80;99.90;;;;;;5078641;28;20035;-67
2022/06/15 05:13:16;;;;;;;4.88;3.92;;;14.80;99.90;;;;;;5091986;28;20508;-67
2022/06/15 05:15:42;;;;;;;4.47;3.60;;;14.70;99.90;;;;;;5094982;28;20032;-67
2022/06/15 05:18:08;;;;;;;7.70;4.10;;;14.70;99.90;;;;;;5094707;28;20029;-67
2022/06/15 05:20:38;;;;;;;7.25;3.83;;;14.70;99.90;;;;;;5093451;28;20048;-67
2022/06/15 05:23:04;;;;;;;8.68;4.18;;;14.90;99.90;;;;;;5078740;28;20074;-67
2022/06/15 05:25:30;;;;;;;5.50;3.67;;;15.30;99.90;;;;;;5093621;28;20036;-67
2022/06/15 05:27:56;;;;;;;8.70;3.75;;;15.70;99.90;;;;;;5101700;27;20482;-67
2022/06/15 05:30:21;;;;;;;4.75;3.08;;;15.80;99.90;;;;;;5090772;28;20036;-67
2022/06/15 05:32:47;;;;;;;6.38;3.65;;;15.90;99.90;;;;;;5088466;28;20047;-67
2022/06/15 05:35:13;;;;;;;4.75;3.55;;;16.00;99.90;;;;;;5077865;28;20147;-67
2022/06/15 05:37:38;;;;;;;5.63;3.65;;;16.10;99.90;;;;;;5091828;28;20082;-67
2022/06/15 05:40:05;;;;;;;4.72;3.30;;;16.00;99.90;;;;;;5074506;28;20476;-67
2022/06/15 05:42:31;;;;;;;7.88;3.78;;;16.10;99.90;;;;;;5092737;28;20048;-67
2022/06/15 05:44:56;;;;;;;8.70;3.58;;;16.50;99.90;;;;;;5090831;28;20039;-67
2022/06/15 05:47:23;;;;;;;8.05;3.35;;;16.70;99.90;;;;;;5075420;28;20138;-67
2022/06/15 05:49:49;;;;;;;5.03;2.88;;;16.70;99.90;;;;;;5072021;28;20430;-67
2022/06/15 05:52:14;;;;;;;6.47;3.40;;;16.70;99.90;;;;;;5093407;28;20042;-67
2022/06/15 05:54:40;;;;;;;5.30;2.90;;;16.60;99.90;;;;;;5109061;27;20047;-67
2022/06/15 05:57:18;;;;;;;8.18;3.00;;;16.50;99.90;;;;;;5090020;28;20047;-67
2022/06/15 05:59:47;;;;;;;7.70;3.08;;;16.60;99.90;;;;;;5077085;28;20526;-67
2022/06/15 06:02:15;;;;;;;7.05;2.78;;;16.70;99.90;;;;;;5038166;28;20032;-66
2022/06/15 06:04:41;;;;;;;6.35;2.65;;;16.80;99.90;;;;;;5072116;28;20159;-67
2022/06/15 06:07:07;;;;;;;4.05;2.53;;;16.90;99.90;;;;;;5092157;28;20463;-67
2022/06/15 06:09:32;;;;;;;6.03;2.60;;;17.20;99.90;;;;;;5071948;28;20036;-67
2022/06/15 06:11:58;;;;;;;6.80;2.22;;;17.50;99.90;;;;;;5073492;28;20050;-67
2022/06/15 06:14:24;;;;;;;6.25;2.22;;;17.70;99.90;;;;;;5072416;28;20092;-67
2022/06/15 06:16:50;;;;;;;6.28;1.98;;;18.00;99.90;;;;;;5091607;28;20075;-67
2022/06/15 06:19:15;;;;;;;5.63;2.22;;;18.20;99.90;;;;;;5075042;28;20044;-67
2022/06/15 06:21:43;;;;;;;3.85;2.08;;;18.30;99.90;;;;;;5071213;28;20161;-67
2022/06/15 06:24:09;;;;;;;5.95;2.22;;;18.30;99.90;;;;;;5100835;27;20041;-67
2022/06/15 06:26:36;;;;;;;5.63;2.67;;;18.30;99.90;;;;;;5074719;28;20775;-67
2022/06/15 06:29:02;;;;;;;6.00;2.33;;;18.50;99.90;;;;;;5068145;28;20036;-67
2022/06/15 06:31:29;;;;;;;7.85;1.90;;;18.70;99.90;;;;;;5074556;28;20039;-67
2022/06/15 06:33:55;;;;;;;5.82;1.80;;;18.90;99.90;;;;;;5073702;28;20130;-67
2022/06/15 06:36:36;;;;;;;6.55;1.90;;;19.20;99.90;;;;;;5090334;28;20085;-67
2022/06/15 06:39:06;;;;;;;3.95;1.42;;;19.40;99.90;;;;;;5083628;28;20032;-67
2022/06/15 06:41:32;;;;;;;4.55;1.75;;;19.70;99.90;;;;;;5083947;28;20371;-67
2022/06/15 06:44:04;;;;;;;4.65;1.98;;;19.80;99.90;;;;;;5086604;28;20032;-67
2022/06/15 06:46:31;;;;;;;5.88;1.63;;;20.00;99.90;;;;;;5089127;28;20040;-68
2022/06/15 06:48:58;;;;;;;3.80;1.67;;;20.10;99.90;;;;;;5071165;28;20052;-67
2022/06/15 06:51:24;;;;;;;4.72;2.03;;;20.30;99.90;;;;;;5087320;28;20035;-67
2022/06/15 06:53:50;;;;;;;9.90;1.88;;;20.30;99.90;;;;;;5092601;28;20065;-67
2022/06/15 06:56:16;;;;;;;6.25;1.95;;;20.40;99.90;;;;;;5094911;28;20417;-67
2022/06/15 06:58:42;;;;;;;7.88;2.08;;;20.50;99.90;;;;;;5052517;28;20048;-67
2022/06/15 07:01:07;;;;;;;3.50;1.30;;;20.50;99.90;;;;;;5067273;28;20544;-67
2022/06/15 07:03:33;;;;;;;6.95;1.67;;;20.70;99.90;;;;;;5090436;28;20093;-67
2022/06/15 07:06:07;;;;;;;6.28;1.75;;;20.70;99.90;;;;;;5063847;28;20393;-67
2022/06/15 07:08:34;;;;;;;6.25;1.73;;;20.80;99.90;;;;;;5085134;28;20455;-67
2022/06/15 07:11:00;;;;;;;5.97;1.35;;;20.90;99.90;;;;;;5086663;28;20206;-67
2022/06/15 07:13:26;;;;;;;9.35;1.52;;;21.10;99.90;;;;;;5071352;28;20476;-67
2022/06/15 07:15:52;;;;;;;8.65;2.78;;;21.20;99.90;;;;;;5087061;28;20387;-67
2022/06/15 07:18:18;;;;;;;4.28;1.20;;;21.30;99.90;;;;;;5101873;27;20040;-67
2022/06/15 07:20:44;;;;;;;7.72;1.73;;;21.10;99.90;;;;;;5087876;28;20351;-67
2022/06/15 07:23:10;;;;;;;3.88;1.10;;;21.30;99.90;;;;;;5073657;28;20038;-67
2022/06/15 07:25:36;;;;;;;5.50;1.65;;;21.40;99.90;;;;;;5088379;28;20432;-67
2022/06/15 07:28:03;;;;;;;6.25;1.42;;;21.60;99.90;;;;;;5072661;28;20036;-67
2022/06/15 07:30:29;;;;;;;5.25;1.52;;;21.70;99.90;;;;;;5063921;28;20052;-67
2022/06/15 07:32:55;;;;;;;3.78;1.38;;;21.80;99.90;;;;;;5083956;28;20046;-67
2022/06/15 07:35:27;;;;;;;3.67;1.10;;;21.80;99.90;;;;;;5084476;28;20051;-67
2022/06/15 07:37:53;;;;;;;5.68;1.38;;;22.00;99.90;;;;;;5066907;28;20506;-67
2022/06/15 07:40:24;;;;;;;5.88;0.98;;;22.10;99.90;;;;;;5084763;28;20115;-67
2022/06/15 07:42:52;;;;;;;5.18;1.50;;;22.10;99.90;;;;;;5087841;28;20067;-67
2022/06/15 07:45:19;;;;;;;4.35;1.50;;;22.30;99.90;;;;;;5089303;28;20055;-67
2022/06/15 07:50:30;;;;;;;4.53;1.23;;;22.50;99.90;;;;;;5086199;28;20040;-67
2022/06/15 07:52:56;;;;;;;6.30;1.63;;;22.40;99.90;;;;;;5086975;28;20127;-67
2022/06/15 07:55:26;;;;;;;5.47;1.30;;;22.50;99.90;;;;;;5091437;28;20071;-67
2022/06/15 07:57:53;;;;;;;4.68;1.48;;;22.50;99.90;;;;;;5087743;28;20478;-67
2022/06/15 08:00:22;;;;;;;7.95;1.08;;;22.50;99.90;;;;;;5088513;28;20381;-67
2022/06/15 08:02:49;;;;;;;3.92;1.42;;;22.50;99.90;;;;;;5072103;28;20039;-67
2022/06/15 08:05:16;;;;;;;4.95;1.10;;;22.50;99.90;;;;;;5090035;28;20063;-67
2022/06/15 08:07:44;;;;;;;4.30;1.23;;;22.50;99.90;;;;;;5075420;28;20514;-67
2022/06/15 08:10:16;;;;;;;3.22;1.08;;;22.30;99.90;;;;;;5069923;28;20066;-67
2022/06/15 08:12:42;;;;;;;4.95;1.00;;;22.50;99.90;;;;;;5073614;28;20123;-67
2022/06/15 08:15:09;;;;;;;3.42;0.93;;;22.90;99.90;;;;;;5092747;28;20032;-67
2022/06/15 08:17:43;;;;;;;5.03;1.73;;;22.50;99.90;;;;;;5096369;28;20047;-67
2022/06/15 08:20:13;;;;;;;3.03;0.70;;;22.50;99.90;;;;;;5070512;28;20040;-67
2022/06/15 08:22:41;;;;;;;4.38;1.00;;;22.30;99.90;;;;;;5089681;28;20131;-67
2022/06/15 08:25:12;;;;;;;2.20;1.00;;;21.90;99.90;;;;;;5091387;28;20039;-67
2022/06/15 08:27:37;;;;;;;5.22;1.25;;;21.80;99.90;;;;;;5094344;28;20066;-67
2022/06/15 08:30:08;;;;;;;4.32;1.45;;;21.60;99.90;;;;;;5072589;28;20435;-67
2022/06/15 08:32:34;;;;;;;3.70;1.45;;;21.30;99.90;;;;;;5090611;28;20031;-67
2022/06/15 08:35:00;;;;;;;3.35;1.05;;;20.90;99.90;;;;;;5103514;27;20525;-67
2022/06/15 08:37:27;;;;;;;3.95;1.00;;;20.80;99.90;;;;;;5056336;28;20032;-67
2022/06/15 08:39:54;;;;;;;3.85;1.45;;;21.10;99.90;;;;;;5070249;28;20044;-67
2022/06/15 08:42:57;;;;;;;5.20;1.17;;;21.00;99.90;;;;;;5075293;28;20040;-67
2022/06/15 08:45:43;;;;;;;6.72;1.20;;;20.90;99.90;;;;;;5089823;28;20217;-67
2022/06/15 08:48:27;;;;;;;5.32;1.02;;;20.70;99.90;;;;;;5089608;28;20092;-67
2022/06/15 08:50:58;;;;;;;3.80;1.27;;;20.70;99.90;;;;;;5072430;28;20051;-67
2022/06/15 08:53:39;;;;;;;4.32;1.25;;;20.70;99.90;;;;;;5056149;28;20036;-67
2022/06/15 08:56:17;;;;;;;6.07;0.90;;;20.50;99.90;;;;;;5071003;28;20095;-67
2022/06/15 08:58:48;;;;;;;4.45;1.50;;;20.40;99.90;;;;;;5069251;28;20670;-67
2022/06/15 09:01:32;;;;;;;3.92;1.50;;;20.50;99.90;;;;;;5102527;27;20059;-67
2022/06/15 09:04:13;;;;;;;3.70;1.33;;;20.90;99.90;;;;;;5072107;28;20032;-67
2022/06/15 09:06:47;;;;;;;3.47;1.35;;;21.40;99.90;;;;;;5090569;28;20051;-67
2022/06/15 09:09:39;;;;;;;3.75;1.27;;;21.80;99.90;;;;;;5090945;28;20059;-67
2022/06/15 09:12:49;;;;;;;6.78;1.23;;;21.90;99.90;;;;;;5100566;27;20051;-67
2022/06/15 09:15:33;;;;;;;6.28;1.10;;;21.90;99.90;;;;;;5067720;28;20097;-67
2022/06/15 09:18:04;;;;;;;3.95;1.27;;;21.90;99.90;;;;;;5071043;28;20040;-67
2022/06/15 09:20:41;;;;;;;3.72;1.08;;;22.10;99.90;;;;;;5073101;28;20043;-67
2022/06/15 09:23:26;;;;;;;5.57;1.08;;;22.20;99.90;;;;;;5089764;28;20132;-67
2022/06/15 09:26:10;;;;;;;4.37;1.17;;;22.30;99.90;;;;;;5073574;28;20442;-67
2022/06/15 09:28:45;;;;;;;2.00;0.70;;;22.20;99.90;;;;;;5070550;28;20493;-67
2022/06/15 09:31:24;;;;;;;4.07;0.93;;;22.30;99.90;;;;;;5100818;27;20050;-67
2022/06/15 09:33:56;;;;;;;5.63;1.27;;;22.30;99.90;;;;;;5072637;28;20043;-68
2022/06/15 09:36:55;;;;;;;5.65;1.52;;;22.40;99.90;;;;;;5092199;28;21943;-67
2022/06/15 09:39:22;;;;;;;3.83;1.23;;;22.30;99.90;;;;;;5071302;28;20421;-67
2022/06/15 09:42:06;;;;;;;5.50;1.33;;;22.20;99.90;;;;;;5091104;28;20482;-68
2022/06/15 09:45:21;;;;;;;3.88;1.55;;;22.00;99.90;;;;;;5100435;27;20517;-68
2022/06/15 09:48:13;;;;;;;3.47;1.10;;;22.00;99.90;;;;;;5005041;28;20116;-67
2022/06/15 09:50:43;;;;;;;4.82;0.90;;;22.20;99.90;;;;;;5011003;28;20109;-67
2022/06/15 09:53:27;;;;;;;4.03;1.23;;;22.30;99.90;;;;;;5041623;28;20509;-67
2022/06/15 09:55:56;;;;;;;5.20;1.65;;;22.20;99.90;;;;;;5092663;28;20480;-67
2022/06/15 09:58:31;;;;;;;3.97;1.33;;;22.10;99.90;;;;;;5091954;28;20046;-67
2022/06/15 10:00:56;;;;;;;2.97;1.20;;;22.20;99.90;;;;;;5089745;28;20467;-67
2022/06/15 10:03:28;;;;;;;3.25;1.00;;;22.30;99.90;;;;;;5086292;28;20036;-67
2022/06/15 10:06:01;;;;;;;5.35;1.38;;;22.40;99.90;;;;;;5089958;28;20123;-67
2022/06/15 10:08:26;;;;;;;3.00;0.80;;;22.50;99.90;;;;;;5089360;28;20498;-67
2022/06/15 10:10:58;;;;;;;5.78;1.40;;;22.40;99.90;;;;;;5091453;28;20035;-67
2022/06/15 10:13:26;;;;;;;6.32;1.30;;;22.30;99.90;;;;;;5086265;28;20046;-67
2022/06/15 10:15:59;;;;;;;9.15;1.23;;;22.30;99.90;;;;;;5055250;28;20047;-67
2022/06/15 10:18:57;;;;;;;3.08;1.13;;;22.40;99.90;;;;;;5070153;28;20048;-68
2022/06/15 10:21:29;;;;;;;3.78;1.33;;;22.30;99.90;;;;;;5064371;28;20517;-67
2022/06/15 10:23:55;;;;;;;4.20;1.30;;;22.20;99.90;;;;;;5069788;28;20048;-69
2022/06/15 10:26:43;;;;;;;7.72;1.10;;;22.20;99.90;;;;;;5072804;28;20043;-68
2022/06/15 10:29:15;;;;;;;4.10;1.20;;;22.20;99.90;;;;;;5085814;28;20474;-67
2022/06/15 10:31:55;;;;;;;4.30;1.10;;;22.30;99.90;;;;;;5070784;28;20093;-68
2022/06/15 10:34:33;;;;;;;8.85;1.70;;;22.50;99.90;;;;;;5102464;27;20051;-67
2022/06/15 10:37:05;;;;;;;3.33;1.40;;;22.50;99.90;;;;;;5069322;28;20048;-67
2022/06/15 10:39:33;;;;;;;6.75;1.40;;;22.70;99.90;;;;;;5086635;28;20158;-67
2022/06/15 10:42:16;;;;;;;3.83;1.45;;;22.60;99.90;;;;;;5090652;28;20043;-67
2022/06/15 10:44:52;;;;;;;3.60;1.50;;;22.40;99.90;;;;;;5072555;28;20043;-67
2022/06/15 10:47:48;;;;;;;5.05;1.15;;;22.30;99.90;;;;;;5102210;27;20155;-68
2022/06/15 10:50:42;;;;;;;6.25;1.25;;;22.20;99.90;;;;;;5057759;28;20052;-70
2022/06/15 10:53:27;;;;;;;4.55;1.25;;;22.40;99.90;;;;;;5089403;28;20089;-67
2022/06/15 11:02:09;;;;;;;3.70;1.08;;;22.60;99.90;;;;;;5098658;27;20044;-67
2022/06/15 11:04:49;;;;;;;3.83;1.20;;;22.50;99.90;;;;;;5062763;28;20044;-67
2022/06/15 11:07:21;;;;;;;5.25;1.50;;;22.50;99.90;;;;;;5082935;28;20043;-68
2022/06/15 11:09:55;;;;;;;3.28;1.17;;;22.60;99.90;;;;;;5084914;28;20047;-68
2022/06/15 11:12:29;;;;;;;3.17;1.27;;;22.70;99.50;;;;;;5082869;28;20065;-67
2022/06/15 11:15:00;;;;;;;5.00;1.35;;;22.70;99.70;;;;;;5054062;28;20059;-68
2022/06/15 11:20:21;;;;;;;2.55;0.82;;;22.90;99.90;;;;;;5085861;28;20387;-68
2022/06/15 11:22:52;;;;;;;2.38;1.00;;;22.90;99.30;;;;;;5068335;28;20051;-67
2022/06/15 11:25:24;;;;;;;5.30;1.10;;;22.90;99.80;;;;;;5068451;28;20040;-68
2022/06/15 11:28:02;;;;;;;3.00;1.27;;;23.00;99.90;;;;;;5070320;28;20059;-68
2022/06/15 11:30:34;;;;;;;4.47;1.42;;;23.00;99.90;;;;;;5066166;28;20521;-67
2022/06/15 11:33:37;;;;;;;3.10;0.85;;;22.90;99.70;;;;;;5085586;28;20040;-67
2022/06/15 11:36:29;;;;;;;2.10;0.80;;;23.10;99.90;;;;;;5070884;28;20052;-68
2022/06/15 11:39:13;;;;;;;4.53;1.33;;;23.10;98.90;;;;;;5085940;28;20047;-68
2022/06/15 11:42:00;;;;;;;3.92;1.15;;;22.90;98.80;;;;;;5085709;28;20031;-68
2022/06/15 11:44:31;;;;;;;5.45;1.10;;;22.70;98.90;;;;;;5083222;28;20040;-67
2022/06/15 11:47:20;;;;;;;3.92;1.27;;;22.70;98.90;;;;;;5082527;28;20118;-67
2022/06/15 11:50:05;;;;;;;4.68;0.98;;;22.80;99.90;;;;;;5087324;28;20036;-68
2022/06/15 11:52:39;;;;;;;9.05;1.48;;;22.90;99.90;;;;;;5064591;28;20039;-67
2022/06/15 11:55:23;;;;;;;3.88;1.00;;;22.90;99.30;;;;;;5086977;28;20127;-67
2022/06/15 11:58:09;;;;;;;5.30;1.20;;;23.00;99.90;;;;;;5097794;28;20040;-67
2022/06/15 12:00:38;;;;;;;2.90;1.00;;;23.00;99.70;;;;;;5062444;28;20048;-67
2022/06/15 12:03:14;;;;;;;3.65;1.00;;;22.80;98.90;;;;;;5084445;28;20060;-67
2022/06/15 12:06:06;;;;;;;7.00;1.20;;;22.50;99.50;;;;;;5051340;28;20757;-67
2022/06/15 12:08:34;;;;;;;4.72;1.17;;;22.20;99.90;;;;;;5065428;28;20111;-67
2022/06/15 12:12:37;;;;;;;4.15;1.27;;;22.20;99.90;;;;;;5049210;28;20047;-67
2022/06/15 12:14:17;;;;;;;2.28;1.05;;;22.30;99.90;;;;;;5070053;28;20043;-67
2022/06/15 12:16:50;;;;;;;6.07;1.40;;;22.30;99.90;;;;;;5046720;28;20063;-67
2022/06/15 12:19:35;;;;;;;3.80;0.90;;;22.50;99.90;;;;;;5077757;28;20539;-67
2022/06/15 12:22:29;;;;;;;2.80;1.10;;;22.60;99.90;;;;;;5064861;28;20094;-68
2022/06/15 12:25:22;;;;;;;3.35;0.95;;;22.60;99.90;;;;;;5066993;28;20092;-67
2022/06/15 12:28:01;;;;;;;4.88;0.90;;;22.50;98.70;;;;;;5065967;28;20062;-67
2022/06/15 12:30:32;;;;;;;3.05;1.30;;;22.50;99.70;;;;;;5085243;28;20043;-67
2022/06/15 12:33:16;;;;;;;4.82;1.10;;;22.50;99.90;;;;;;5066631;28;20062;-68
2022/06/15 12:35:54;;;;;;;3.22;1.15;;;22.60;99.90;;;;;;5062571;28;20055;-67
2022/06/15 12:38:55;;;;;;;3.45;1.08;;;22.80;99.90;;;;;;5099237;28;20047;-67
2022/06/15 12:44:22;;;;;;;3.90;1.23;;;22.70;99.90;;;;;;5083552;28;20040;-67
2022/06/15 12:46:51;;;;;;;2.20;1.10;;;22.60;99.90;;;;;;5063281;28;20052;-67
2022/06/15 12:49:38;;;;;;;4.13;1.73;;;22.60;99.90;;;;;;5086654;28;20529;-67
2022/06/15 12:52:18;;;;;;;4.38;1.52;;;22.70;99.90;;;;;;5080458;28;20051;-67
2022/06/15 12:55:03;;;;;;;3.65;1.08;;;22.80;99.90;;;;;;5070498;28;21309;-67
2022/06/15 12:57:50;;;;;;;3.03;1.50;;;22.90;99.90;;;;;;5087155;28;20040;-68
2022/06/15 13:00:36;;;;;;;2.65;1.00;;;22.60;99.40;;;;;;5065882;28;20090;-67
2022/06/15 13:03:39;;;;;;;4.63;1.65;;;22.60;99.90;;;;;;5101565;27;20046;-67
2022/06/15 13:06:22;;;;;;;4.50;0.98;;;22.30;98.00;;;;;;5085202;28;20082;-67
2022/06/15 13:09:14;;;;;;;5.90;0.90;;;22.60;99.90;;;;;;5073094;28;20050;-67
2022/06/15 13:12:11;;;;;;;4.00;1.25;;;22.90;99.90;;;;;;5084647;28;20060;-67
2022/06/15 13:14:36;;;;;;;2.38;1.08;;;23.10;99.90;;;;;;5066505;28;20043;-67
2022/06/15 13:17:04;;;;;;;5.72;1.30;;;23.20;99.90;;;;;;5083471;28;20044;-67
2022/06/15 13:19:40;;;;;;;4.75;1.13;;;23.00;99.20;;;;;;5086174;28;20036;-67
2022/06/15 13:22:07;;;;;;;3.15;1.00;;;22.70;99.50;;;;;;5092426;28;20040;-67
2022/06/15 13:25:03;;;;;;;3.65;0.90;;;22.50;99.80;;;;;;5068225;28;20036;-67
2022/06/15 13:27:44;;;;;;;4.70;1.20;;;22.20;99.90;;;;;;5092815;28;20038;-67
2022/06/15 13:30:30;;;;;;;4.55;1.05;;;22.10;99.90;;;;;;5068396;28;20045;-67